sensor_id;sensor_type;location;lat;lon;timestamp;temperature;humidity
11615;DHT22;5863;52.832;4.758;2023-02-01T00:01:52;8.20;99.90
11615;DHT22;5863;52.832;4.758;2023-02-01T00:04:18;8.20;99.90
11615;DHT22;5863;52.832;4.758;2023-02-01T00:06:45;8.20;99.90
11615;DHT22;5863;52.832;4.758;2023-02-01T00:09:13;8.10;99.90
11615;DHT22;5863;52.832;4.758;2023-02-01T00:11:40;8.20;99.90
11615;DHT22;5863;52.832;4.758;2023-02-01T00:14:07;8.30;99.90
11615;DHT22;5863;52.832;4.758;2023-02-01T00:16:34;8.10;99.90
11615;DHT22;5863;52.832;4.758;2023-02-01T00:19:03;8.10;99.90
11615;DHT22;5863;52.832;4.758;2023-02-01T00:21:31;8.10;99.90
11615;DHT22;5863;52.832;4.758;2023-02-01T00:23:58;8.10;99.90
11615;DHT22;5863;52.832;4.758;2023-02-01T00:26:30;8.10;99.90
11615;DHT22;5863;52.832;4.758;2023-02-01T00:28:58;8.10;99.90
11615;DHT22;5863;52.832;4.758;2023-02-01T00:31:25;8.10;99.90
11615;DHT22;5863;52.832;4.758;2023-02-01T00:33:52;8.20;99.90
11615;DHT22;5863;52.832;4.758;2023-02-01T00:36:19;8.20;99.90
11615;DHT22;5863;52.832;4.758;2023-02-01T00:38:45;8.20;99.90
11615;DHT22;5863;52.832;4.758;2023-02-01T00:41:14;8.20;99.90
11615;DHT22;5863;52.832;4.758;2023-02-01T00:43:43;8.20;99.90
11615;DHT22;5863;52.832;4.758;2023-02-01T00:46:11;8.20;99.90
11615;DHT22;5863;52.832;4.758;2023-02-01T00:48:38;8.20;99.90
11615;DHT22;5863;52.832;4.758;2023-02-01T00:51:08;8.20;99.90
11615;DHT22;5863;52.832;4.758;2023-02-01T00:53:36;8.20;99.90
11615;DHT22;5863;52.832;4.758;2023-02-01T00:56:03;8.20;99.90
11615;DHT22;5863;52.832;4.758;2023-02-01T00:58:31;8.20;99.90
11615;DHT22;5863;52.832;4.758;2023-02-01T01:01:04;8.20;99.90
11615;DHT22;5863;52.832;4.758;2023-02-01T01:03:32;8.20;99.90
11615;DHT22;5863;52.832;4.758;2023-02-01T01:06:01;8.20;99.90
11615;DHT22;5863;52.832;4.758;2023-02-01T01:08:28;8.20;99.90
11615;DHT22;5863;52.832;4.758;2023-02-01T01:10:55;8.20;99.90
11615;DHT22;5863;52.832;4.758;2023-02-01T01:13:21;8.20;99.90
11615;DHT22;5863;52.832;4.758;2023-02-01T01:15:48;8.20;99.90
11615;DHT22;5863;52.832;4.758;2023-02-01T01:18:16;8.20;99.90
11615;DHT22;5863;52.832;4.758;2023-02-01T01:20:43;8.30;99.90
11615;DHT22;5863;52.832;4.758;2023-02-01T01:23:10;8.30;99.90
11615;DHT22;5863;52.832;4.758;2023-02-01T01:25:40;8.30;99.90
11615;DHT22;5863;52.832;4.758;2023-02-01T01:28:07;8.30;99.90
11615;DHT22;5863;52.832;4.758;2023-02-01T01:30:34;8.30;99.90
11615;DHT22;5863;52.832;4.758;2023-02-01T01:33:01;8.30;99.90
11615;DHT22;5863;52.832;4.758;2023-02-01T01:35:30;8.30;99.90
11615;DHT22;5863;52.832;4.758;2023-02-01T01:37:58;8.30;99.90
11615;DHT22;5863;52.832;4.758;2023-02-01T01:40:26;8.30;99.90
11615;DHT22;5863;52.832;4.758;2023-02-01T01:42:52;8.30;99.90
11615;DHT22;5863;52.832;4.758;2023-02-01T01:45:24;8.30;99.90
11615;DHT22;5863;52.832;4.758;2023-02-01T01:47:53;8.30;99.90
11615;DHT22;5863;52.832;4.758;2023-02-01T01:50:25;8.30;99.90
11615;DHT22;5863;52.832;4.758;2023-02-01T01:52:57;8.30;99.90
11615;DHT22;5863;52.832;4.758;2023-02-01T01:55:24;8.30;99.90
11615;DHT22;5863;52.832;4.758;2023-02-01T01:57:55;8.30;99.90
11615;DHT22;5863;52.832;4.758;2023-02-01T02:00:23;8.30;99.90
11615;DHT22;5863;52.832;4.758;2023-02-01T02:02:54;8.30;99.90
11615;DHT22;5863;52.832;4.758;2023-02-01T02:05:29;8.20;99.90
11615;DHT22;5863;52.832;4.758;2023-02-01T02:08:00;8.20;99.90
11615;DHT22;5863;52.832;4.758;2023-02-01T02:10:27;8.20;99.90
11615;DHT22;5863;52.832;4.758;2023-02-01T02:13:09;8.20;99.90
11615;DHT22;5863;52.832;4.758;2023-02-01T02:15:38;8.20;99.90
11615;DHT22;5863;52.832;4.758;2023-02-01T02:18:12;8.10;99.90
11615;DHT22;5863;52.832;4.758;2023-02-01T02:21:10;8.20;99.90
11615;DHT22;5863;52.832;4.758;2023-02-01T02:24:09;8.20;99.90
11615;DHT22;5863;52.832;4.758;2023-02-01T02:26:56;8.10;99.90
11615;DHT22;5863;52.832;4.758;2023-02-01T02:32:35;8.10;99.90
11615;DHT22;5863;52.832;4.758;2023-02-01T02:35:12;8.10;99.90
11615;DHT22;5863;52.832;4.758;2023-02-01T02:37:49;8.10;99.90
11615;DHT22;5863;52.832;4.758;2023-02-01T02:40:23;8.10;99.90
11615;DHT22;5863;52.832;4.758;2023-02-01T02:42:59;8.10;99.90
11615;DHT22;5863;52.832;4.758;2023-02-01T02:45:51;8.10;99.90
11615;DHT22;5863;52.832;4.758;2023-02-01T02:48:42;8.10;99.90
11615;DHT22;5863;52.832;4.758;2023-02-01T02:51:14;8.10;99.90
11615;DHT22;5863;52.832;4.758;2023-02-01T02:54:02;8.10;99.90
11615;DHT22;5863;52.832;4.758;2023-02-01T02:56:49;8.10;99.90
11615;DHT22;5863;52.832;4.758;2023-02-01T02:59:35;8.10;99.90
11615;DHT22;5863;52.832;4.758;2023-02-01T03:02:20;8.00;99.90
11615;DHT22;5863;52.832;4.758;2023-02-01T03:05:06;8.00;99.90
11615;DHT22;5863;52.832;4.758;2023-02-01T03:08:05;7.90;99.90
11615;DHT22;5863;52.832;4.758;2023-02-01T03:10:42;7.90;99.90
11615;DHT22;5863;52.832;4.758;2023-02-01T03:13:13;7.90;99.90
11615;DHT22;5863;52.832;4.758;2023-02-01T03:15:43;7.90;99.90
11615;DHT22;5863;52.832;4.758;2023-02-01T03:18:15;7.90;99.90
11615;DHT22;5863;52.832;4.758;2023-02-01T03:20:46;7.90;99.90
11615;DHT22;5863;52.832;4.758;2023-02-01T03:23:18;7.90;99.90
11615;DHT22;5863;52.832;4.758;2023-02-01T03:25:47;7.90;99.90
11615;DHT22;5863;52.832;4.758;2023-02-01T03:28:15;7.90;99.90
11615;DHT22;5863;52.832;4.758;2023-02-01T03:30:44;7.90;99.90
11615;DHT22;5863;52.832;4.758;2023-02-01T03:33:16;7.90;99.90
11615;DHT22;5863;52.832;4.758;2023-02-01T03:35:56;7.90;99.90
11615;DHT22;5863;52.832;4.758;2023-02-01T03:38:29;7.90;99.90
11615;DHT22;5863;52.832;4.758;2023-02-01T03:41:03;7.90;99.90
11615;DHT22;5863;52.832;4.758;2023-02-01T03:43:35;7.90;99.90
11615;DHT22;5863;52.832;4.758;2023-02-01T03:46:11;7.90;99.90
11615;DHT22;5863;52.832;4.758;2023-02-01T03:48:41;8.00;99.90
11615;DHT22;5863;52.832;4.758;2023-02-01T03:51:09;8.00;99.90
11615;DHT22;5863;52.832;4.758;2023-02-01T03:53:40;8.00;99.90
11615;DHT22;5863;52.832;4.758;2023-02-01T03:56:08;7.90;99.90
11615;DHT22;5863;52.832;4.758;2023-02-01T03:58:37;8.00;99.90
11615;DHT22;5863;52.832;4.758;2023-02-01T04:01:04;8.00;99.90
11615;DHT22;5863;52.832;4.758;2023-02-01T04:03:30;8.00;99.90
11615;DHT22;5863;52.832;4.758;2023-02-01T04:05:57;8.00;99.90
11615;DHT22;5863;52.832;4.758;2023-02-01T04:08:24;8.00;99.90
11615;DHT22;5863;52.832;4.758;2023-02-01T04:10:52;8.00;99.90
11615;DHT22;5863;52.832;4.758;2023-02-01T04:13:19;8.00;99.90
11615;DHT22;5863;52.832;4.758;2023-02-01T04:15:47;8.00;99.90
11615;DHT22;5863;52.832;4.758;2023-02-01T04:18:15;8.00;99.90
11615;DHT22;5863;52.832;4.758;2023-02-01T04:20:42;8.00;99.90
11615;DHT22;5863;52.832;4.758;2023-02-01T04:23:10;8.00;99.90
11615;DHT22;5863;52.832;4.758;2023-02-01T04:25:36;8.00;99.90
11615;DHT22;5863;52.832;4.758;2023-02-01T04:28:05;8.00;99.90
11615;DHT22;5863;52.832;4.758;2023-02-01T04:30:32;8.00;99.90
11615;DHT22;5863;52.832;4.758;2023-02-01T04:32:59;8.00;99.90
11615;DHT22;5863;52.832;4.758;2023-02-01T04:35:25;7.90;99.90
11615;DHT22;5863;52.832;4.758;2023-02-01T04:37:52;8.00;99.90
11615;DHT22;5863;52.832;4.758;2023-02-01T04:40:18;7.90;99.90
11615;DHT22;5863;52.832;4.758;2023-02-01T04:42:45;7.90;99.90
11615;DHT22;5863;52.832;4.758;2023-02-01T04:45:13;7.90;99.90
11615;DHT22;5863;52.832;4.758;2023-02-01T04:47:40;7.90;99.90
11615;DHT22;5863;52.832;4.758;2023-02-01T04:50:07;7.90;99.90
11615;DHT22;5863;52.832;4.758;2023-02-01T04:52:35;7.90;99.90
11615;DHT22;5863;52.832;4.758;2023-02-01T04:55:03;7.90;99.90
11615;DHT22;5863;52.832;4.758;2023-02-01T04:57:29;7.90;99.90
11615;DHT22;5863;52.832;4.758;2023-02-01T04:59:56;7.90;99.90
11615;DHT22;5863;52.832;4.758;2023-02-01T05:02:24;7.90;99.90
11615;DHT22;5863;52.832;4.758;2023-02-01T05:04:51;7.90;99.90
11615;DHT22;5863;52.832;4.758;2023-02-01T05:07:18;7.90;99.90
11615;DHT22;5863;52.832;4.758;2023-02-01T05:09:45;7.90;99.90
11615;DHT22;5863;52.832;4.758;2023-02-01T05:12:12;7.90;99.90
11615;DHT22;5863;52.832;4.758;2023-02-01T05:14:56;7.90;99.90
11615;DHT22;5863;52.832;4.758;2023-02-01T05:17:24;7.90;99.90
11615;DHT22;5863;52.832;4.758;2023-02-01T05:19:51;7.90;99.90
11615;DHT22;5863;52.832;4.758;2023-02-01T05:22:17;7.90;99.90
11615;DHT22;5863;52.832;4.758;2023-02-01T05:24:44;7.90;99.90
11615;DHT22;5863;52.832;4.758;2023-02-01T05:27:11;7.90;99.90
11615;DHT22;5863;52.832;4.758;2023-02-01T05:29:38;7.90;99.90
11615;DHT22;5863;52.832;4.758;2023-02-01T05:32:04;7.90;99.90
11615;DHT22;5863;52.832;4.758;2023-02-01T05:34:32;7.90;99.90
11615;DHT22;5863;52.832;4.758;2023-02-01T05:36:59;7.90;99.90
11615;DHT22;5863;52.832;4.758;2023-02-01T05:39:26;7.90;99.90
11615;DHT22;5863;52.832;4.758;2023-02-01T05:41:52;7.90;99.90
11615;DHT22;5863;52.832;4.758;2023-02-01T05:44:19;7.90;99.90
11615;DHT22;5863;52.832;4.758;2023-02-01T05:46:46;7.90;99.90
11615;DHT22;5863;52.832;4.758;2023-02-01T05:49:12;7.90;99.90
11615;DHT22;5863;52.832;4.758;2023-02-01T05:51:40;7.90;99.90
11615;DHT22;5863;52.832;4.758;2023-02-01T05:54:08;7.90;99.90
11615;DHT22;5863;52.832;4.758;2023-02-01T05:56:35;7.90;99.90
11615;DHT22;5863;52.832;4.758;2023-02-01T05:59:02;7.80;99.90
11615;DHT22;5863;52.832;4.758;2023-02-01T06:01:29;7.80;99.90
11615;DHT22;5863;52.832;4.758;2023-02-01T06:03:56;7.80;99.90
11615;DHT22;5863;52.832;4.758;2023-02-01T06:06:22;7.80;99.90
11615;DHT22;5863;52.832;4.758;2023-02-01T06:08:50;7.80;99.90
11615;DHT22;5863;52.832;4.758;2023-02-01T06:11:17;7.80;99.90
11615;DHT22;5863;52.832;4.758;2023-02-01T06:13:44;7.80;99.90
11615;DHT22;5863;52.832;4.758;2023-02-01T06:16:11;7.80;99.90
11615;DHT22;5863;52.832;4.758;2023-02-01T06:18:40;7.80;99.90
11615;DHT22;5863;52.832;4.758;2023-02-01T06:21:07;7.70;99.90
11615;DHT22;5863;52.832;4.758;2023-02-01T06:23:34;7.70;99.90
11615;DHT22;5863;52.832;4.758;2023-02-01T06:26:04;7.70;99.90
11615;DHT22;5863;52.832;4.758;2023-02-01T06:28:32;7.60;99.90
11615;DHT22;5863;52.832;4.758;2023-02-01T06:31:03;7.60;99.90
11615;DHT22;5863;52.832;4.758;2023-02-01T06:33:31;7.70;99.90
11615;DHT22;5863;52.832;4.758;2023-02-01T06:35:59;7.60;99.90
11615;DHT22;5863;52.832;4.758;2023-02-01T06:38:26;7.60;99.90
11615;DHT22;5863;52.832;4.758;2023-02-01T06:40:53;7.60;99.90
11615;DHT22;5863;52.832;4.758;2023-02-01T06:43:21;7.60;99.90
11615;DHT22;5863;52.832;4.758;2023-02-01T06:45:48;7.60;99.90
11615;DHT22;5863;52.832;4.758;2023-02-01T06:48:15;7.60;99.90
11615;DHT22;5863;52.832;4.758;2023-02-01T06:50:41;7.60;99.90
11615;DHT22;5863;52.832;4.758;2023-02-01T06:53:08;7.60;99.90
11615;DHT22;5863;52.832;4.758;2023-02-01T06:55:35;7.60;99.90
11615;DHT22;5863;52.832;4.758;2023-02-01T06:58:02;7.60;99.90
11615;DHT22;5863;52.832;4.758;2023-02-01T07:00:30;7.60;99.90
11615;DHT22;5863;52.832;4.758;2023-02-01T07:02:57;7.60;99.90
11615;DHT22;5863;52.832;4.758;2023-02-01T07:05:25;7.60;99.90
11615;DHT22;5863;52.832;4.758;2023-02-01T07:07:51;7.60;99.90
11615;DHT22;5863;52.832;4.758;2023-02-01T07:10:18;7.60;99.90
11615;DHT22;5863;52.832;4.758;2023-02-01T07:12:45;7.60;99.90
11615;DHT22;5863;52.832;4.758;2023-02-01T07:15:12;7.50;99.90
11615;DHT22;5863;52.832;4.758;2023-02-01T07:17:40;7.50;99.90
11615;DHT22;5863;52.832;4.758;2023-02-01T07:20:08;7.50;99.90
11615;DHT22;5863;52.832;4.758;2023-02-01T07:22:35;7.60;99.90
11615;DHT22;5863;52.832;4.758;2023-02-01T07:25:02;7.60;99.90
11615;DHT22;5863;52.832;4.758;2023-02-01T07:27:29;7.60;99.90
11615;DHT22;5863;52.832;4.758;2023-02-01T07:29:55;7.50;99.90
11615;DHT22;5863;52.832;4.758;2023-02-01T07:32:25;7.60;99.90
11615;DHT22;5863;52.832;4.758;2023-02-01T07:34:53;7.60;99.90
11615;DHT22;5863;52.832;4.758;2023-02-01T07:37:20;7.60;99.90
11615;DHT22;5863;52.832;4.758;2023-02-01T07:39:46;7.60;99.90
11615;DHT22;5863;52.832;4.758;2023-02-01T07:42:19;7.60;99.90
11615;DHT22;5863;52.832;4.758;2023-02-01T07:44:46;7.70;99.90
11615;DHT22;5863;52.832;4.758;2023-02-01T07:47:13;7.60;99.90
11615;DHT22;5863;52.832;4.758;2023-02-01T07:49:39;7.70;99.90
11615;DHT22;5863;52.832;4.758;2023-02-01T07:52:07;7.70;99.90
11615;DHT22;5863;52.832;4.758;2023-02-01T07:54:36;7.70;99.90
11615;DHT22;5863;52.832;4.758;2023-02-01T07:57:03;7.80;99.90
11615;DHT22;5863;52.832;4.758;2023-02-01T07:59:29;7.80;99.90
11615;DHT22;5863;52.832;4.758;2023-02-01T08:01:57;7.90;99.90
11615;DHT22;5863;52.832;4.758;2023-02-01T08:04:23;7.90;99.90
11615;DHT22;5863;52.832;4.758;2023-02-01T08:06:49;7.90;99.90
11615;DHT22;5863;52.832;4.758;2023-02-01T08:09:17;7.90;99.90
11615;DHT22;5863;52.832;4.758;2023-02-01T08:11:44;8.00;99.90
11615;DHT22;5863;52.832;4.758;2023-02-01T08:14:11;8.00;99.90
11615;DHT22;5863;52.832;4.758;2023-02-01T08:16:38;8.00;99.90
11615;DHT22;5863;52.832;4.758;2023-02-01T08:19:05;8.00;99.90
11615;DHT22;5863;52.832;4.758;2023-02-01T08:21:31;8.00;99.90
11615;DHT22;5863;52.832;4.758;2023-02-01T08:24:04;8.00;99.90
11615;DHT22;5863;52.832;4.758;2023-02-01T08:26:32;8.00;99.90
11615;DHT22;5863;52.832;4.758;2023-02-01T08:29:00;8.00;99.90
11615;DHT22;5863;52.832;4.758;2023-02-01T08:31:29;8.10;99.90
11615;DHT22;5863;52.832;4.758;2023-02-01T08:33:58;8.10;99.90
11615;DHT22;5863;52.832;4.758;2023-02-01T08:36:26;8.10;99.90
11615;DHT22;5863;52.832;4.758;2023-02-01T08:38:53;8.10;99.90
11615;DHT22;5863;52.832;4.758;2023-02-01T08:41:22;8.10;99.90
11615;DHT22;5863;52.832;4.758;2023-02-01T08:43:51;8.10;99.90
11615;DHT22;5863;52.832;4.758;2023-02-01T08:46:18;8.10;99.90
11615;DHT22;5863;52.832;4.758;2023-02-01T08:48:45;8.10;99.90
11615;DHT22;5863;52.832;4.758;2023-02-01T08:51:14;8.20;99.90
11615;DHT22;5863;52.832;4.758;2023-02-01T08:53:41;8.20;99.90
11615;DHT22;5863;52.832;4.758;2023-02-01T08:56:09;8.20;99.90
11615;DHT22;5863;52.832;4.758;2023-02-01T08:58:36;8.20;99.90
11615;DHT22;5863;52.832;4.758;2023-02-01T09:01:06;8.20;99.90
11615;DHT22;5863;52.832;4.758;2023-02-01T09:03:33;8.20;99.90
11615;DHT22;5863;52.832;4.758;2023-02-01T09:06:00;8.20;99.90
11615;DHT22;5863;52.832;4.758;2023-02-01T09:08:27;8.30;99.90
11615;DHT22;5863;52.832;4.758;2023-02-01T09:10:58;8.30;99.90
11615;DHT22;5863;52.832;4.758;2023-02-01T09:13:25;8.30;99.90
11615;DHT22;5863;52.832;4.758;2023-02-01T09:15:52;8.30;99.90
11615;DHT22;5863;52.832;4.758;2023-02-01T09:18:20;8.30;99.90
11615;DHT22;5863;52.832;4.758;2023-02-01T09:20:47;8.40;99.90
11615;DHT22;5863;52.832;4.758;2023-02-01T09:23:14;8.30;99.90
11615;DHT22;5863;52.832;4.758;2023-02-01T09:25:40;8.30;99.90
11615;DHT22;5863;52.832;4.758;2023-02-01T09:28:07;8.30;99.90
11615;DHT22;5863;52.832;4.758;2023-02-01T09:30:35;8.30;99.90
11615;DHT22;5863;52.832;4.758;2023-02-01T09:33:02;8.20;99.90
11615;DHT22;5863;52.832;4.758;2023-02-01T09:35:30;8.20;99.90
11615;DHT22;5863;52.832;4.758;2023-02-01T09:37:57;8.20;99.90
11615;DHT22;5863;52.832;4.758;2023-02-01T09:40:23;8.20;99.90
11615;DHT22;5863;52.832;4.758;2023-02-01T09:43:00;8.20;99.90
11615;DHT22;5863;52.832;4.758;2023-02-01T09:45:36;8.30;99.90
11615;DHT22;5863;52.832;4.758;2023-02-01T09:48:12;8.30;99.90
11615;DHT22;5863;52.832;4.758;2023-02-01T09:50:44;8.30;99.90
11615;DHT22;5863;52.832;4.758;2023-02-01T09:53:17;8.30;99.90
11615;DHT22;5863;52.832;4.758;2023-02-01T09:55:47;8.30;99.90
11615;DHT22;5863;52.832;4.758;2023-02-01T09:58:17;8.30;99.90
11615;DHT22;5863;52.832;4.758;2023-02-01T10:00:52;8.30;99.90
11615;DHT22;5863;52.832;4.758;2023-02-01T10:03:20;8.30;99.90
11615;DHT22;5863;52.832;4.758;2023-02-01T10:06:04;8.30;99.90
11615;DHT22;5863;52.832;4.758;2023-02-01T10:08:43;8.30;99.90
11615;DHT22;5863;52.832;4.758;2023-02-01T10:11:25;8.30;99.90
11615;DHT22;5863;52.832;4.758;2023-02-01T10:13:59;8.30;99.90
11615;DHT22;5863;52.832;4.758;2023-02-01T10:16:37;8.30;99.90
11615;DHT22;5863;52.832;4.758;2023-02-01T10:19:17;8.30;99.90
11615;DHT22;5863;52.832;4.758;2023-02-01T10:21:54;8.30;99.90
11615;DHT22;5863;52.832;4.758;2023-02-01T10:24:40;8.30;99.90
11615;DHT22;5863;52.832;4.758;2023-02-01T10:27:17;8.30;99.90
11615;DHT22;5863;52.832;4.758;2023-02-01T10:29:45;8.30;99.90
11615;DHT22;5863;52.832;4.758;2023-02-01T10:32:16;8.30;99.90
11615;DHT22;5863;52.832;4.758;2023-02-01T10:34:45;8.40;99.90
11615;DHT22;5863;52.832;4.758;2023-02-01T10:37:20;8.40;99.90
11615;DHT22;5863;52.832;4.758;2023-02-01T10:39:49;8.50;99.90
11615;DHT22;5863;52.832;4.758;2023-02-01T10:42:24;8.50;99.90
11615;DHT22;5863;52.832;4.758;2023-02-01T10:44:53;8.50;99.90
11615;DHT22;5863;52.832;4.758;2023-02-01T10:47:20;8.60;99.90
11615;DHT22;5863;52.832;4.758;2023-02-01T10:49:52;8.60;99.90
11615;DHT22;5863;52.832;4.758;2023-02-01T10:52:29;8.60;99.90
11615;DHT22;5863;52.832;4.758;2023-02-01T10:55:27;8.70;99.90
11615;DHT22;5863;52.832;4.758;2023-02-01T10:57:59;8.60;99.90
11615;DHT22;5863;52.832;4.758;2023-02-01T11:00:26;8.60;99.90
11615;DHT22;5863;52.832;4.758;2023-02-01T11:02:54;8.60;99.90
11615;DHT22;5863;52.832;4.758;2023-02-01T11:05:21;8.60;99.90
11615;DHT22;5863;52.832;4.758;2023-02-01T11:07:53;8.60;99.90
11615;DHT22;5863;52.832;4.758;2023-02-01T11:10:35;8.60;99.90
11615;DHT22;5863;52.832;4.758;2023-02-01T11:13:02;8.60;99.90
11615;DHT22;5863;52.832;4.758;2023-02-01T11:15:29;8.70;99.90
11615;DHT22;5863;52.832;4.758;2023-02-01T11:18:14;8.70;99.90
11615;DHT22;5863;52.832;4.758;2023-02-01T11:20:45;8.70;99.90
11615;DHT22;5863;52.832;4.758;2023-02-01T11:23:17;8.70;99.90
11615;DHT22;5863;52.832;4.758;2023-02-01T11:25:49;8.70;99.90
11615;DHT22;5863;52.832;4.758;2023-02-01T11:28:18;8.70;99.90
11615;DHT22;5863;52.832;4.758;2023-02-01T11:30:47;8.70;99.90
11615;DHT22;5863;52.832;4.758;2023-02-01T11:33:17;8.70;99.90
11615;DHT22;5863;52.832;4.758;2023-02-01T11:35:47;8.70;99.90
11615;DHT22;5863;52.832;4.758;2023-02-01T11:38:21;8.80;99.90
11615;DHT22;5863;52.832;4.758;2023-02-01T11:40:48;8.80;99.90
11615;DHT22;5863;52.832;4.758;2023-02-01T11:43:22;8.80;99.90
11615;DHT22;5863;52.832;4.758;2023-02-01T11:45:57;8.80;99.90
11615;DHT22;5863;52.832;4.758;2023-02-01T11:48:26;8.80;99.90
11615;DHT22;5863;52.832;4.758;2023-02-01T11:51:03;8.80;99.90
11615;DHT22;5863;52.832;4.758;2023-02-01T11:53:40;8.90;99.90
11615;DHT22;5863;52.832;4.758;2023-02-01T11:56:18;8.90;99.90
11615;DHT22;5863;52.832;4.758;2023-02-01T11:59:12;9.00;99.90
11615;DHT22;5863;52.832;4.758;2023-02-01T12:01:49;9.00;99.90
11615;DHT22;5863;52.832;4.758;2023-02-01T12:04:45;9.00;99.90
11615;DHT22;5863;52.832;4.758;2023-02-01T12:07:16;9.10;99.90
11615;DHT22;5863;52.832;4.758;2023-02-01T12:09:57;9.20;99.90
11615;DHT22;5863;52.832;4.758;2023-02-01T12:12:34;9.30;99.90
11615;DHT22;5863;52.832;4.758;2023-02-01T12:15:16;9.30;99.90
11615;DHT22;5863;52.832;4.758;2023-02-01T12:23:57;9.30;99.90
11615;DHT22;5863;52.832;4.758;2023-02-01T12:26:44;9.30;99.90
11615;DHT22;5863;52.832;4.758;2023-02-01T12:29:32;9.10;99.90
11615;DHT22;5863;52.832;4.758;2023-02-01T12:32:28;9.30;99.90
11615;DHT22;5863;52.832;4.758;2023-02-01T12:38:03;9.30;99.90
11615;DHT22;5863;52.832;4.758;2023-02-01T12:40:43;9.30;99.90
11615;DHT22;5863;52.832;4.758;2023-02-01T12:43:19;9.30;99.90
11615;DHT22;5863;52.832;4.758;2023-02-01T12:45:55;9.30;99.90
11615;DHT22;5863;52.832;4.758;2023-02-01T12:48:28;9.40;99.90
11615;DHT22;5863;52.832;4.758;2023-02-01T12:51:01;9.40;99.90
11615;DHT22;5863;52.832;4.758;2023-02-01T12:53:35;9.40;99.90
11615;DHT22;5863;52.832;4.758;2023-02-01T12:56:10;9.40;99.90
11615;DHT22;5863;52.832;4.758;2023-02-01T12:58:44;9.50;99.90
11615;DHT22;5863;52.832;4.758;2023-02-01T13:01:17;9.50;99.90
11615;DHT22;5863;52.832;4.758;2023-02-01T13:03:53;9.50;99.90
11615;DHT22;5863;52.832;4.758;2023-02-01T13:06:24;9.60;99.90
11615;DHT22;5863;52.832;4.758;2023-02-01T13:09:03;9.70;99.90
11615;DHT22;5863;52.832;4.758;2023-02-01T13:11:34;9.60;99.90
11615;DHT22;5863;52.832;4.758;2023-02-01T13:14:05;9.70;99.90
11615;DHT22;5863;52.832;4.758;2023-02-01T13:16:37;9.70;99.90
11615;DHT22;5863;52.832;4.758;2023-02-01T13:19:12;9.70;99.90
11615;DHT22;5863;52.832;4.758;2023-02-01T13:21:43;9.60;99.90
11615;DHT22;5863;52.832;4.758;2023-02-01T13:24:23;9.60;99.90
11615;DHT22;5863;52.832;4.758;2023-02-01T13:26:53;9.60;99.90
11615;DHT22;5863;52.832;4.758;2023-02-01T13:29:23;9.60;99.90
11615;DHT22;5863;52.832;4.758;2023-02-01T13:32:04;9.60;99.90
11615;DHT22;5863;52.832;4.758;2023-02-01T13:35:11;9.60;99.90
11615;DHT22;5863;52.832;4.758;2023-02-01T13:38:11;9.60;99.90
11615;DHT22;5863;52.832;4.758;2023-02-01T13:40:42;9.60;99.90
11615;DHT22;5863;52.832;4.758;2023-02-01T13:43:13;9.60;99.90
11615;DHT22;5863;52.832;4.758;2023-02-01T13:45:47;9.60;99.90
11615;DHT22;5863;52.832;4.758;2023-02-01T13:48:21;9.50;99.90
11615;DHT22;5863;52.832;4.758;2023-02-01T13:50:52;9.50;99.90
11615;DHT22;5863;52.832;4.758;2023-02-01T13:53:24;9.40;99.90
11615;DHT22;5863;52.832;4.758;2023-02-01T13:55:56;9.40;99.90
11615;DHT22;5863;52.832;4.758;2023-02-01T13:58:31;9.50;99.90
11615;DHT22;5863;52.832;4.758;2023-02-01T14:03:59;9.60;99.90
11615;DHT22;5863;52.832;4.758;2023-02-01T14:06:42;9.70;99.90
11615;DHT22;5863;52.832;4.758;2023-02-01T14:09:19;9.70;99.90
11615;DHT22;5863;52.832;4.758;2023-02-01T14:11:48;9.70;99.90
11615;DHT22;5863;52.832;4.758;2023-02-01T14:14:43;9.60;99.90
11615;DHT22;5863;52.832;4.758;2023-02-01T14:17:39;9.60;99.90
11615;DHT22;5863;52.832;4.758;2023-02-01T14:23:40;9.60;99.90
11615;DHT22;5863;52.832;4.758;2023-02-01T14:26:14;9.60;99.90
11615;DHT22;5863;52.832;4.758;2023-02-01T14:28:46;9.60;99.90
11615;DHT22;5863;52.832;4.758;2023-02-01T14:31:37;9.60;99.90
11615;DHT22;5863;52.832;4.758;2023-02-01T14:34:13;9.50;99.90
11615;DHT22;5863;52.832;4.758;2023-02-01T14:36:45;9.40;99.90
11615;DHT22;5863;52.832;4.758;2023-02-01T14:39:29;9.30;99.90
11615;DHT22;5863;52.832;4.758;2023-02-01T14:41:59;9.30;99.90
11615;DHT22;5863;52.832;4.758;2023-02-01T14:44:29;9.20;99.90
11615;DHT22;5863;52.832;4.758;2023-02-01T14:47:04;9.10;99.90
11615;DHT22;5863;52.832;4.758;2023-02-01T14:49:33;9.10;99.90
11615;DHT22;5863;52.832;4.758;2023-02-01T14:52:04;9.10;99.90
11615;DHT22;5863;52.832;4.758;2023-02-01T14:54:33;9.10;99.90
11615;DHT22;5863;52.832;4.758;2023-02-01T14:57:00;9.10;99.90
11615;DHT22;5863;52.832;4.758;2023-02-01T14:59:29;9.10;99.90
11615;DHT22;5863;52.832;4.758;2023-02-01T15:01:59;9.10;99.90
11615;DHT22;5863;52.832;4.758;2023-02-01T15:04:27;9.10;99.90
11615;DHT22;5863;52.832;4.758;2023-02-01T15:06:55;9.20;99.90
11615;DHT22;5863;52.832;4.758;2023-02-01T15:09:26;9.30;99.90
11615;DHT22;5863;52.832;4.758;2023-02-01T15:11:58;9.30;99.90
11615;DHT22;5863;52.832;4.758;2023-02-01T15:14:26;9.40;99.90
11615;DHT22;5863;52.832;4.758;2023-02-01T15:16:53;9.40;99.90
11615;DHT22;5863;52.832;4.758;2023-02-01T15:19:21;9.40;99.90
11615;DHT22;5863;52.832;4.758;2023-02-01T15:21:49;9.40;99.90
11615;DHT22;5863;52.832;4.758;2023-02-01T15:24:21;9.40;99.90
11615;DHT22;5863;52.832;4.758;2023-02-01T15:26:49;9.30;99.90
11615;DHT22;5863;52.832;4.758;2023-02-01T15:29:18;9.40;99.90
11615;DHT22;5863;52.832;4.758;2023-02-01T15:31:48;9.30;99.90
11615;DHT22;5863;52.832;4.758;2023-02-01T15:34:16;9.30;99.90
11615;DHT22;5863;52.832;4.758;2023-02-01T15:36:44;9.30;99.90
11615;DHT22;5863;52.832;4.758;2023-02-01T15:39:16;9.20;99.90
11615;DHT22;5863;52.832;4.758;2023-02-01T15:41:48;9.20;99.90
11615;DHT22;5863;52.832;4.758;2023-02-01T15:44:21;9.20;99.90
11615;DHT22;5863;52.832;4.758;2023-02-01T15:46:50;9.20;99.90
11615;DHT22;5863;52.832;4.758;2023-02-01T15:49:23;9.10;99.90
11615;DHT22;5863;52.832;4.758;2023-02-01T15:51:50;9.10;99.90
11615;DHT22;5863;52.832;4.758;2023-02-01T15:54:19;9.00;99.90
11615;DHT22;5863;52.832;4.758;2023-02-01T15:56:50;9.00;99.90
11615;DHT22;5863;52.832;4.758;2023-02-01T15:59:22;9.00;99.90
11615;DHT22;5863;52.832;4.758;2023-02-01T16:01:50;9.00;99.90
11615;DHT22;5863;52.832;4.758;2023-02-01T16:04:19;8.90;99.90
11615;DHT22;5863;52.832;4.758;2023-02-01T16:06:48;8.90;99.90
11615;DHT22;5863;52.832;4.758;2023-02-01T16:09:17;9.00;99.90
11615;DHT22;5863;52.832;4.758;2023-02-01T16:11:52;9.00;99.90
11615;DHT22;5863;52.832;4.758;2023-02-01T16:14:22;9.00;99.90
11615;DHT22;5863;52.832;4.758;2023-02-01T16:16:49;9.10;99.90
11615;DHT22;5863;52.832;4.758;2023-02-01T16:19:16;9.10;99.90
11615;DHT22;5863;52.832;4.758;2023-02-01T16:21:42;9.00;99.90
11615;DHT22;5863;52.832;4.758;2023-02-01T16:24:09;9.00;99.90
11615;DHT22;5863;52.832;4.758;2023-02-01T16:26:36;9.00;99.90
11615;DHT22;5863;52.832;4.758;2023-02-01T16:29:04;9.00;99.90
11615;DHT22;5863;52.832;4.758;2023-02-01T16:31:35;9.00;99.90
11615;DHT22;5863;52.832;4.758;2023-02-01T16:34:02;8.90;99.90
11615;DHT22;5863;52.832;4.758;2023-02-01T16:36:30;8.90;99.90
11615;DHT22;5863;52.832;4.758;2023-02-01T16:38:57;8.90;99.90
11615;DHT22;5863;52.832;4.758;2023-02-01T16:41:25;8.90;99.90
11615;DHT22;5863;52.832;4.758;2023-02-01T16:43:54;8.90;99.90
11615;DHT22;5863;52.832;4.758;2023-02-01T16:46:22;8.80;99.90